Time;durP1;ratioP1;P1;durP2;ratioP2;P2;SDS_P1;SDS_P2;PMS_P1;PMS_P2;Temp;Humidity;BMP_temperature;BMP_pressure;BME280_temperature;BME280_humidity;BME280_pressure;Samples;Min_cycle;Max_cycle;Signal;HPM_P1;HPM_P2
2023/03/24 00:02:17;;;;;;;;;;;15.50;51.00;;;14.29;51.76;100171.84;12252519;19;19907;-85
2023/03/24 00:06:21;;;;;;;;;;;15.50;51.10;;;14.26;51.71;100166.81;12251154;19;19937;-85
2023/03/24 00:10:22;;;;;;;;;;;15.50;51.10;;;14.47;51.85;100191.34;12248794;19;19923;-85
2023/03/24 00:14:24;;;;;;;;;;;15.40;51.00;;;14.28;51.77;100162.25;12251662;19;19978;-85
2023/03/24 00:18:26;;;;;;;;;;;15.40;51.00;;;14.39;51.78;100180.63;12248464;19;19926;-85
2023/03/24 00:22:27;;;;;;;;;;;15.40;51.10;;;14.12;51.92;100136.38;12248776;19;19950;-85
2023/03/24 00:26:29;;;;;;;;;;;15.40;51.10;;;14.24;51.84;100160.84;12248452;19;19911;-84
2023/03/24 00:30:34;;;;;;;;;;;15.30;51.10;;;14.26;51.75;100179.97;12245274;19;20315;-84
2023/03/24 00:34:37;;;;;;;;;;;15.30;51.10;;;14.16;52.04;100170.16;12249383;19;19919;-84
2023/03/24 00:38:40;;;;;;;;;;;15.20;51.10;;;13.90;51.90;100124.13;12247520;19;20252;-85
2023/03/24 00:42:44;;;;;;;;;;;15.20;51.10;;;14.06;51.89;100150.84;12250537;19;19926;-85
2023/03/24 00:46:55;;;;;;;;;;;15.20;51.20;;;14.08;52.00;100151.56;12249527;19;19970;-85
2023/03/24 00:50:57;;;;;;;;;;;15.20;51.30;;;13.99;51.97;100136.53;12247413;19;20311;-85
2023/03/24 00:55:00;;;;;;;;;;;15.10;51.30;;;14.08;51.99;100148.09;12249357;19;19927;-85
2023/03/24 00:59:02;;;;;;;;;;;15.10;51.30;;;13.98;52.03;100137.47;12246878;19;19923;-85
2023/03/24 01:03:04;;;;;;;;;;;15.10;51.30;;;14.07;52.00;100149.91;12249209;19;19936;-85
2023/03/24 01:07:07;;;;;;;;;;;15.10;51.30;;;13.93;52.12;100114.25;12247426;19;19923;-85
2023/03/24 01:11:11;;;;;;;;;;;15.10;51.40;;;13.85;51.96;100100.03;12244889;19;19942;-85
2023/03/24 01:15:18;;;;;;;;;;;15.10;51.40;;;14.03;52.10;100134.50;12247923;19;19911;-85
2023/03/24 01:19:20;;;;;;;;;;;15.10;51.40;;;13.72;52.06;100079.19;12247031;19;19923;-84
2023/03/24 01:23:24;;;;;;;;;;;15.10;51.40;;;13.93;52.17;100101.13;12248132;19;19975;-84
2023/03/24 01:27:26;;;;;;;;;;;15.10;51.40;;;13.97;52.16;100093.81;12244436;19;19935;-85
2023/03/24 01:31:28;;;;;;;;;;;15.10;51.40;;;13.90;52.15;100080.34;12244093;19;19936;-85
2023/03/24 01:35:30;;;;;;;;;;;15.10;51.40;;;14.01;52.13;100091.78;12247280;19;19923;-84
2023/03/24 01:39:32;;;;;;;;;;;15.10;51.40;;;13.99;52.14;100081.41;12253663;19;20268;-85
2023/03/24 01:43:35;;;;;;;;;;;15.10;51.40;;;14.01;52.09;100082.09;12258645;19;20574;-84
2023/03/24 01:47:36;;;;;;;;;;;15.10;51.40;;;13.95;52.12;100077.34;12258925;19;20315;-85
2023/03/24 01:51:48;;;;;;;;;;;15.10;51.50;;;13.93;52.19;100066.13;12253453;19;20328;-85
2023/03/24 01:55:50;;;;;;;;;;;15.10;51.50;;;13.94;52.21;100054.69;12257677;19;19960;-85
2023/03/24 01:59:57;;;;;;;;;;;15.00;51.50;;;13.89;52.09;100026.19;12252775;19;19985;-85
2023/03/24 02:04:18;;;;;;;;;;;15.00;51.50;;;13.84;52.33;100032.75;12259077;19;19982;-85
2023/03/24 02:08:41;;;;;;;;;;;15.10;51.50;;;13.89;52.38;100043.72;12257378;19;19935;-85
2023/03/24 02:12:44;;;;;;;;;;;15.00;51.50;;;13.85;52.37;100024.78;12257900;19;19915;-85
2023/03/24 02:17:05;;;;;;;;;;;15.00;51.60;;;13.90;52.32;100029.63;12255842;19;19911;-85
2023/03/24 02:21:25;;;;;;;;;;;15.00;51.70;;;13.88;52.29;100034.16;12253745;19;20345;-84
2023/03/24 02:26:04;;;;;;;;;;;15.00;51.70;;;13.89;52.43;100025.34;12255620;19;19918;-85
2023/03/24 02:30:12;;;;;;;;;;;15.00;51.70;;;13.87;52.37;100012.34;12255227;19;19914;-85
2023/03/24 02:34:53;;;;;;;;;;;14.90;51.70;;;13.85;52.45;100000.28;12258403;19;19914;-85
2023/03/24 02:39:13;;;;;;;;;;;14.90;51.80;;;13.86;52.46;99994.13;12255769;19;20323;-85
2023/03/24 02:43:44;;;;;;;;;;;15.00;52.00;;;13.87;52.55;99993.16;12251998;19;19970;-84
2023/03/24 02:48:19;;;;;;;;;;;15.00;52.00;;;13.87;52.50;99993.97;12251196;19;19915;-85
2023/03/24 02:52:42;;;;;;;;;;;15.00;52.10;;;13.82;52.62;99964.63;12253955;19;19918;-85
2023/03/24 02:57:21;;;;;;;;;;;15.00;52.20;;;13.79;52.50;99956.19;12245741;19;19914;-85
2023/03/24 03:01:53;;;;;;;;;;;15.00;52.10;;;13.90;52.60;99967.47;12250586;19;19919;-85
2023/03/24 03:06:28;;;;;;;;;;;15.00;52.10;;;13.79;52.60;99946.53;12253402;19;19915;-85
2023/03/24 03:10:35;;;;;;;;;;;15.10;52.20;;;13.84;52.61;99949.59;12251473;19;19919;-85
2023/03/24 03:14:43;;;;;;;;;;;15.10;52.30;;;13.83;52.62;99932.22;12254721;19;20252;-85
2023/03/24 03:19:08;;;;;;;;;;;15.10;52.70;;;13.96;52.72;99947.78;12251817;19;19918;-84
2023/03/24 03:23:14;;;;;;;;;;;15.10;52.30;;;14.03;52.71;99942.84;12255432;19;19930;-85
2023/03/24 03:27:30;;;;;;;;;;;15.10;52.20;;;13.93;52.79;99919.16;12254829;19;19917;-85
2023/03/24 03:31:40;;;;;;;;;;;15.20;52.30;;;13.99;52.60;99925.69;12248383;19;20344;-84
2023/03/24 03:35:50;;;;;;;;;;;15.10;52.30;;;13.91;52.75;99907.97;12250879;19;20356;-85
2023/03/24 03:40:13;;;;;;;;;;;15.20;52.40;;;13.93;52.78;99906.88;12244140;19;19922;-84
2023/03/24 03:44:20;;;;;;;;;;;15.20;52.60;;;13.93;52.80;99906.03;12251200;19;19914;-84
2023/03/24 03:48:25;;;;;;;;;;;15.20;52.60;;;13.90;52.80;99893.16;12250655;19;19915;-84
2023/03/24 03:52:26;;;;;;;;;;;15.20;52.60;;;14.06;52.72;99930.31;12253716;19;19931;-84
2023/03/24 03:56:32;;;;;;;;;;;15.20;52.60;;;14.02;52.81;99914.94;12250877;19;20323;-84
2023/03/24 04:00:56;;;;;;;;;;;15.20;52.70;;;13.88;52.92;99882.81;12247548;19;19915;-84
2023/03/24 04:05:41;;;;;;;;;;;15.20;52.70;;;14.04;52.84;99906.00;12248945;19;19929;-84
2023/03/24 04:10:18;;;;;;;;;;;15.20;52.60;;;14.00;52.91;99896.69;12249395;19;19975;-84
2023/03/24 04:14:42;;;;;;;;;;;15.20;52.80;;;14.05;52.98;99888.44;12249734;19;20351;-85
2023/03/24 04:19:22;;;;;;;;;;;15.20;52.70;;;13.98;53.00;99880.22;12247557;19;19907;-84
2023/03/24 04:23:38;;;;;;;;;;;15.10;52.90;;;14.00;53.03;99873.06;12250953;19;19911;-85
2023/03/24 04:27:55;;;;;;;;;;;15.10;53.20;;;14.05;52.99;99878.75;12259383;19;20256;-81
2023/03/24 04:31:57;;;;;;;;;;;15.20;53.00;;;14.07;53.11;99871.59;12258821;19;19938;-82
2023/03/24 04:36:18;;;;;;;;;;;15.20;53.20;;;14.03;52.83;99851.81;12258746;19;19923;-82
2023/03/24 04:40:43;;;;;;;;;;;15.20;53.20;;;14.04;53.21;99845.59;12258483;19;19923;-82
2023/03/24 04:44:45;;;;;;;;;;;15.20;53.60;;;14.05;53.05;99841.19;12258167;19;19950;-81
2023/03/24 04:49:05;;;;;;;;;;;15.20;53.40;;;14.06;53.20;99837.59;12256450;19;19946;-82
2023/03/24 04:53:11;;;;;;;;;;;15.20;54.70;;;14.01;53.25;99827.47;12257861;19;19933;-81
2023/03/24 04:57:14;;;;;;;;;;;15.20;53.80;;;14.03;53.09;99822.94;12253216;19;19934;-83
2023/03/24 05:01:20;;;;;;;;;;;15.20;53.60;;;14.11;53.28;99830.16;12253919;19;19935;-82
2023/03/24 05:05:36;;;;;;;;;;;15.20;53.50;;;14.17;53.26;99824.38;12254289;19;19974;-82
2023/03/24 05:09:37;;;;;;;;;;;15.30;53.70;;;14.17;53.18;99825.22;12255547;19;19944;-82
2023/03/24 05:13:39;;;;;;;;;;;15.30;54.10;;;14.17;53.30;99825.22;12259205;19;19930;-82
2023/03/24 05:17:41;;;;;;;;;;;15.30;53.70;;;14.17;53.37;99812.09;12257713;19;19958;-82
2023/03/24 05:21:42;;;;;;;;;;;15.30;54.00;;;14.08;53.37;99791.03;12253713;19;19918;-83
2023/03/24 05:25:46;;;;;;;;;;;15.40;53.90;;;13.91;53.36;99771.47;12256159;19;19974;-82
2023/03/24 05:29:49;;;;;;;;;;;15.40;54.00;;;14.27;53.38;99820.03;12252031;19;19923;-82
2023/03/24 05:33:56;;;;;;;;;;;15.40;53.70;;;14.01;53.37;99774.13;12249904;19;19917;-82
2023/03/24 05:37:59;;;;;;;;;;;15.40;54.00;;;14.31;53.43;99803.06;12252129;19;19960;-83
2023/03/24 05:42:01;;;;;;;;;;;15.40;54.10;;;14.26;53.44;99791.28;12253731;19;19919;-82
2023/03/24 05:46:03;;;;;;;;;;;15.50;54.10;;;14.22;53.52;99785.44;12255380;19;19933;-83
2023/03/24 05:50:08;;;;;;;;;;;15.50;54.50;;;14.27;53.41;99790.31;12253911;19;19915;-83
2023/03/24 05:54:09;;;;;;;;;;;15.50;54.60;;;14.42;53.35;99806.53;12252719;19;19958;-83
2023/03/24 05:58:20;;;;;;;;;;;15.60;55.20;;;14.38;53.63;99791.03;12251995;19;19923;-82
2023/03/24 06:02:24;;;;;;;;;;;15.60;55.20;;;14.44;53.57;99794.94;12251922;19;19927;-82
2023/03/24 06:06:31;;;;;;;;;;;15.60;54.80;;;14.30;53.68;99755.91;12252511;19;19929;-82
2023/03/24 06:10:35;;;;;;;;;;;15.60;56.00;;;14.40;53.60;99772.53;12252342;19;19933;-82
2023/03/24 06:14:37;;;;;;;;;;;15.70;54.80;;;14.56;53.63;99793.91;12249717;19;20305;-82
2023/03/24 06:18:51;;;;;;;;;;;15.70;55.10;;;14.61;53.67;99767.25;12245810;19;19921;-82
2023/03/24 06:23:14;;;;;;;;;;;15.70;56.80;;;14.53;53.88;99746.88;12257012;19;19919;-82
2023/03/24 06:27:29;;;;;;;;;;;15.80;55.60;;;14.56;53.85;99751.88;12259956;19;19918;-82
2023/03/24 06:31:33;;;;;;;;;;;15.80;55.10;;;14.64;53.85;99753.00;12257901;19;19921;-82
2023/03/24 06:35:35;;;;;;;;;;;15.80;55.10;;;14.68;53.99;99754.38;12259777;19;19927;-82
2023/03/24 06:39:44;;;;;;;;;;;15.90;55.50;;;14.78;53.93;99761.31;12256375;19;19915;-82
2023/03/24 06:43:47;;;;;;;;;;;15.90;55.30;;;14.74;53.98;99743.31;12258940;19;19947;-82
2023/03/24 06:47:54;;;;;;;;;;;16.00;55.40;;;14.82;53.93;99735.59;12258088;19;19933;-82
2023/03/24 06:51:56;;;;;;;;;;;16.00;54.90;;;14.89;53.98;99741.16;12256465;19;19925;-82
2023/03/24 06:56:07;;;;;;;;;;;16.10;55.60;;;15.00;54.08;99746.28;12260092;19;19937;-82
2023/03/24 07:00:15;;;;;;;;;;;16.10;55.70;;;14.94;53.98;99734.50;12255434;19;19919;-81
2023/03/24 07:04:35;;;;;;;;;;;16.20;55.40;;;15.01;54.01;99729.53;12258104;19;19941;-81
2023/03/24 07:08:53;;;;;;;;;;;16.20;55.10;;;15.11;54.06;99737.44;12258157;19;19942;-82
2023/03/24 07:12:58;;;;;;;;;;;16.30;55.50;;;15.18;53.96;99730.66;12257460;19;19923;-82
2023/03/24 07:17:01;;;;;;;;;;;16.30;55.90;;;15.24;53.88;99730.09;12256318;19;19903;-82
2023/03/24 07:21:15;;;;;;;;;;;16.40;55.30;;;15.24;54.18;99714.31;12253708;19;19915;-82
2023/03/24 07:25:18;;;;;;;;;;;16.40;55.80;;;15.33;54.05;99712.63;12258439;19;19927;-82
2023/03/24 07:29:30;;;;;;;;;;;16.50;55.50;;;15.36;54.27;99710.53;12256106;19;19993;-83
2023/03/24 07:33:43;;;;;;;;;;;16.50;55.40;;;15.41;54.30;99704.88;12256320;19;19911;-82
2023/03/24 07:37:45;;;;;;;;;;;16.60;55.80;;;15.49;54.00;99710.25;12255315;19;19946;-82
2023/03/24 07:41:48;;;;;;;;;;;16.70;55.30;;;15.50;54.34;99709.31;12252745;19;19974;-82
2023/03/24 07:46:00;;;;;;;;;;;16.70;55.50;;;15.55;54.16;99691.25;12256081;19;20432;-82
2023/03/24 07:50:08;;;;;;;;;;;16.70;56.40;;;15.64;54.24;99693.06;12256220;19;19911;-81
2023/03/24 07:54:10;;;;;;;;;;;16.80;55.40;;;15.67;54.27;99691.94;12258390;19;19927;-81
2023/03/24 07:58:17;;;;;;;;;;;16.80;56.20;;;15.74;54.30;99703.56;12254983;19;20399;-82
2023/03/24 08:02:33;;;;;;;;;;;16.90;55.30;;;15.74;54.21;99708.00;12256017;19;19918;-84
2023/03/24 08:06:57;;;;;;;;;;;17.00;55.70;;;15.85;54.35;99707.81;12253090;19;20341;-82
2023/03/24 08:10:59;;;;;;;;;;;17.00;55.20;;;15.91;54.25;99716.00;12254426;19;19907;-83
2023/03/24 08:15:00;;;;;;;;;;;17.10;56.20;;;15.86;54.26;99704.25;12254824;19;20284;-82
2023/03/24 08:19:02;;;;;;;;;;;17.10;55.70;;;15.92;54.56;99722.91;12250817;19;20273;-82
2023/03/24 08:23:05;;;;;;;;;;;17.10;55.40;;;15.95;54.35;99720.97;12254778;19;19938;-82
2023/03/24 08:27:07;;;;;;;;;;;17.10;55.20;;;15.95;54.39;99719.16;12253156;19;20389;-81
2023/03/24 08:31:09;;;;;;;;;;;17.20;55.20;;;15.93;54.17;99719.31;12253827;19;19931;-82
2023/03/24 08:35:13;;;;;;;;;;;17.10;55.70;;;15.82;54.32;99702.84;12255340;19;19916;-82
2023/03/24 08:39:15;;;;;;;;;;;17.10;55.20;;;15.86;54.47;99694.53;12251090;19;19919;-82
2023/03/24 08:43:16;;;;;;;;;;;17.10;56.90;;;15.83;54.51;99697.47;12254503;19;19918;-82
2023/03/24 08:47:18;;;;;;;;;;;17.10;55.50;;;15.77;54.29;99689.28;12255270;19;19926;-81
2023/03/24 08:51:19;;;;;;;;;;;17.00;56.10;;;15.80;54.52;99683.75;12251333;19;19917;-81
2023/03/24 08:55:22;;;;;;;;;;;17.00;55.80;;;15.84;54.55;99693.84;12252996;19;19911;-82
2023/03/24 08:59:23;;;;;;;;;;;17.00;55.70;;;15.85;54.48;99703.41;12251537;19;19938;-82
2023/03/24 09:03:25;;;;;;;;;;;17.00;55.60;;;15.52;54.53;99653.88;12252954;19;19923;-81
2023/03/24 09:07:26;;;;;;;;;;;17.00;55.60;;;15.85;54.46;99707.81;12255249;19;19915;-81
2023/03/24 09:11:28;;;;;;;;;;;17.00;55.30;;;15.82;54.48;99706.31;12250727;19;19921;-81
2023/03/24 09:15:30;;;;;;;;;;;16.90;55.30;;;15.80;54.59;99691.66;12251490;19;20344;-83
2023/03/24 09:19:32;;;;;;;;;;;17.00;55.50;;;15.71;54.52;99680.16;12249059;19;19915;-82
2023/03/24 09:23:35;;;;;;;;;;;16.90;55.40;;;15.78;54.55;99704.13;12250805;19;20325;-82
2023/03/24 09:27:36;;;;;;;;;;;17.00;55.30;;;15.62;54.59;99686.28;12252602;19;19921;-82
2023/03/24 09:31:38;;;;;;;;;;;16.90;55.10;;;15.54;54.51;99670.38;12249130;19;19942;-82
2023/03/24 09:35:40;;;;;;;;;;;16.90;55.30;;;15.76;54.54;99700.81;12251359;19;19918;-82
2023/03/24 09:39:41;;;;;;;;;;;17.00;55.70;;;15.92;54.39;99727.34;12248463;19;19919;-82
2023/03/24 09:43:51;;;;;;;;;;;17.00;55.40;;;15.90;54.67;99716.13;12251978;19;19925;-82
2023/03/24 09:48:10;;;;;;;;;;;17.00;55.20;;;15.92;54.52;99715.00;12248381;19;19926;-82
2023/03/24 09:52:13;;;;;;;;;;;17.10;55.90;;;15.96;54.43;99717.34;12251537;19;19922;-82
2023/03/24 09:56:19;;;;;;;;;;;17.10;55.80;;;15.82;54.69;99685.25;12249357;19;20329;-82
2023/03/24 10:00:25;;;;;;;;;;;17.20;55.90;;;16.09;54.51;99715.22;12258107;19;19974;-82
2023/03/24 10:04:28;;;;;;;;;;;17.20;56.30;;;16.20;54.89;99730.84;12261538;19;19923;-82
2023/03/24 10:08:49;;;;;;;;;;;17.30;55.80;;;16.34;54.88;99730.38;12260958;19;19937;-82
2023/03/24 10:12:53;;;;;;;;;;;17.40;56.40;;;16.38;54.93;99705.38;12263579;19;19915;-82
2023/03/24 10:16:58;;;;;;;;;;;17.60;56.40;;;16.55;55.13;99718.75;12259964;19;19939;-82
2023/03/24 10:21:24;;;;;;;;;;;17.70;56.00;;;16.66;54.97;99702.75;12258150;19;19920;-82
2023/03/24 10:25:43;;;;;;;;;;;17.80;56.00;;;16.86;54.89;99707.91;12260295;19;19919;-82
2023/03/24 10:29:46;;;;;;;;;;;18.00;55.70;;;16.97;54.94;99723.50;12258911;19;19907;-82
2023/03/24 10:33:48;;;;;;;;;;;18.10;55.50;;;16.96;54.65;99706.03;12267318;19;19915;-82
2023/03/24 10:37:50;;;;;;;;;;;18.20;55.60;;;17.00;54.74;99707.38;12257685;19;20256;-82
2023/03/24 10:41:53;;;;;;;;;;;18.20;55.50;;;17.07;55.17;99711.06;12255895;19;19922;-82
2023/03/24 10:45:56;;;;;;;;;;;18.30;55.10;;;17.16;54.96;99718.06;12259761;19;20340;-83
2023/03/24 10:50:00;;;;;;;;;;;18.40;55.00;;;17.32;54.86;99727.09;12257048;19;19926;-82
2023/03/24 10:54:18;;;;;;;;;;;18.50;55.30;;;17.46;55.06;99718.63;12260164;19;19923;-83
2023/03/24 10:58:37;;;;;;;;;;;18.60;55.10;;;17.57;54.79;99723.66;12259756;19;19933;-82
2023/03/24 11:02:41;;;;;;;;;;;18.70;55.10;;;17.66;54.91;99724.53;12256429;19;19957;-82
2023/03/24 11:07:06;;;;;;;;;;;18.90;54.70;;;17.76;54.92;99727.91;12259540;19;19920;-82
2023/03/24 11:11:34;;;;;;;;;;;18.90;54.40;;;17.80;54.66;99731.94;12256143;19;19918;-82
2023/03/24 11:15:36;;;;;;;;;;;19.00;53.90;;;17.75;54.56;99728.88;12259883;19;19929;-82
2023/03/24 11:19:38;;;;;;;;;;;19.00;53.60;;;17.77;54.71;99729.56;12253621;19;19931;-82
2023/03/24 11:23:44;;;;;;;;;;;19.00;53.20;;;17.74;54.67;99737.81;12258467;19;19923;-83
2023/03/24 11:27:47;;;;;;;;;;;19.10;53.20;;;17.69;54.66;99743.53;12256045;19;19929;-82
2023/03/24 11:32:02;;;;;;;;;;;19.00;52.60;;;17.68;54.60;99752.44;12255072;19;19926;-82
2023/03/24 11:36:31;;;;;;;;;;;19.00;52.60;;;17.68;54.63;99759.53;12254923;19;19919;-82
2023/03/24 11:40:33;;;;;;;;;;;19.00;52.60;;;17.68;54.41;99756.88;12252850;19;19932;-82
2023/03/24 11:44:37;;;;;;;;;;;19.00;52.50;;;17.72;54.63;99757.44;12256051;19;19922;-81
2023/03/24 11:48:51;;;;;;;;;;;19.00;52.70;;;17.68;54.67;99746.31;12257883;19;19939;-84
2023/03/24 11:53:09;;;;;;;;;;;18.90;52.60;;;17.75;54.58;99749.19;12259060;19;19919;-82
2023/03/24 11:57:13;;;;;;;;;;;19.00;52.90;;;17.75;54.61;99739.44;12261709;19;19971;-81
2023/03/24 12:01:14;;;;;;;;;;;19.00;52.90;;;17.89;54.49;99748.66;12255074;19;19914;-82
2023/03/24 12:05:15;;;;;;;;;;;19.00;52.90;;;17.95;54.47;99757.75;12259700;19;20339;-82
2023/03/24 12:09:31;;;;;;;;;;;19.10;53.00;;;18.01;54.56;99757.13;12256545;19;19923;-82
2023/03/24 12:13:40;;;;;;;;;;;19.10;52.90;;;18.00;54.47;99745.72;12258876;19;19927;-81
2023/03/24 12:18:07;;;;;;;;;;;19.20;53.00;;;18.07;54.33;99759.16;12256550;19;20526;-82
2023/03/24 12:22:27;;;;;;;;;;;19.20;52.70;;;18.13;54.58;99738.22;12252821;19;19926;-82
2023/03/24 12:26:30;;;;;;;;;;;19.30;52.90;;;18.13;54.46;99729.47;12266087;19;19926;-82
2023/03/24 12:30:55;;;;;;;;;;;19.30;52.90;;;18.19;54.27;99741.22;12262090;19;19919;-82
2023/03/24 12:35:10;;;;;;;;;;;19.40;52.20;;;18.19;54.20;99757.06;12260749;19;19918;-82
2023/03/24 12:39:16;;;;;;;;;;;19.40;52.50;;;18.16;54.11;99757.38;12255022;19;19921;-82
2023/03/24 12:43:41;;;;;;;;;;;19.40;52.70;;;18.17;54.33;99772.25;12254223;19;19923;-82
2023/03/24 12:47:49;;;;;;;;;;;19.40;52.50;;;18.19;54.48;99783.50;12256907;19;19926;-82
2023/03/24 12:52:18;;;;;;;;;;;19.40;52.70;;;18.13;54.10;99755.88;12255289;19;20301;-83
2023/03/24 12:56:42;;;;;;;;;;;19.30;52.60;;;18.11;54.17;99742.81;12252749;19;19940;-82
2023/03/24 13:01:31;;;;;;;;;;;19.40;52.60;;;18.13;54.19;99738.22;12252214;19;19990;-83
2023/03/24 13:05:38;;;;;;;;;;;19.30;52.30;;;18.18;54.27;99739.56;12252562;19;19923;-82
2023/03/24 13:09:53;;;;;;;;;;;19.40;52.10;;;18.23;54.03;99761.06;12254226;19;19910;-83
2023/03/24 13:13:56;;;;;;;;;;;19.40;52.00;;;18.02;54.15;99713.88;12254187;19;19915;-82
2023/03/24 13:18:10;;;;;;;;;;;19.40;52.40;;;18.23;54.17;99750.50;12251182;19;19907;-83
2023/03/24 13:22:16;;;;;;;;;;;19.40;52.40;;;18.10;54.07;99737.72;12254914;19;19930;-82
2023/03/24 13:26:41;;;;;;;;;;;19.30;52.00;;;18.25;53.84;99754.59;12251023;19;19919;-82
2023/03/24 13:30:43;;;;;;;;;;;19.30;52.20;;;18.21;53.84;99752.47;12248625;19;19928;-82
2023/03/24 13:34:55;;;;;;;;;;;19.40;51.50;;;18.17;53.92;99744.00;12249881;19;20351;-82
2023/03/24 13:39:00;;;;;;;;;;;19.40;52.00;;;18.26;53.94;99784.53;12247885;19;19994;-82
2023/03/24 13:43:15;;;;;;;;;;;19.40;51.90;;;18.19;53.88;99783.50;12249734;19;19915;-82
2023/03/24 13:47:18;;;;;;;;;;;19.40;51.60;;;18.23;53.94;99787.50;12244808;19;19933;-82
2023/03/24 13:51:25;;;;;;;;;;;19.40;51.50;;;18.16;53.84;99803.13;12248605;19;19947;-83
2023/03/24 13:55:29;;;;;;;;;;;19.40;51.50;;;18.16;53.61;99813.69;12248468;19;19911;-82
2023/03/24 13:59:32;;;;;;;;;;;19.30;50.20;;;18.06;53.93;99824.34;12246571;19;19982;-82
2023/03/24 14:03:37;;;;;;;;;;;19.30;50.90;;;18.06;53.75;99828.81;12249845;19;19915;-83
2023/03/24 14:07:38;;;;;;;;;;;19.20;50.90;;;18.08;53.61;99827.69;12251786;19;19919;-82
2023/03/24 14:11:48;;;;;;;;;;;19.30;50.90;;;18.01;53.50;99817.88;12249760;19;19911;-82
2023/03/24 14:15:57;;;;;;;;;;;19.20;50.90;;;18.08;53.83;99818.94;12257059;19;19915;-83
2023/03/24 14:20:01;;;;;;;;;;;19.20;51.20;;;18.07;53.72;99820.75;12250555;19;19918;-82
2023/03/24 14:24:14;;;;;;;;;;;19.20;51.00;;;18.08;53.60;99832.16;12252287;19;19938;-82
2023/03/24 14:28:40;;;;;;;;;;;19.20;51.00;;;18.03;53.65;99815.94;12249886;19;19938;-82
2023/03/24 14:32:51;;;;;;;;;;;19.20;49.70;;;17.93;53.59;99805.47;12252297;19;20349;-82
2023/03/24 14:37:02;;;;;;;;;;;19.20;50.20;;;17.96;53.65;99813.09;12251310;19;19922;-83
2023/03/24 14:41:10;;;;;;;;;;;19.20;50.00;;;17.97;53.40;99803.34;12248303;19;19945;-83
2023/03/24 14:45:51;;;;;;;;;;;19.10;49.60;;;18.01;53.56;99781.75;12257819;19;19923;-82
2023/03/24 14:49:54;;;;;;;;;;;19.10;49.70;;;18.00;53.41;99753.66;12262864;19;19931;-82
2023/03/24 14:53:57;;;;;;;;;;;19.10;49.90;;;17.99;53.17;99738.81;12263088;19;20365;-83
2023/03/24 14:58:40;;;;;;;;;;;19.10;50.20;;;18.05;53.45;99743.44;12258296;19;19918;-83
2023/03/24 15:03:01;;;;;;;;;;;19.20;50.30;;;18.05;53.07;99754.03;12263222;19;19982;-82
2023/03/24 15:07:05;;;;;;;;;;;19.20;50.30;;;18.02;53.31;99775.47;12260061;19;19926;-83
2023/03/24 15:11:08;;;;;;;;;;;19.20;49.90;;;17.98;52.93;99789.13;12263888;19;19918;-82
2023/03/24 15:15:15;;;;;;;;;;;19.20;50.00;;;17.99;53.29;99799.56;12259282;19;21329;-82
2023/03/24 15:19:25;;;;;;;;;;;19.10;50.10;;;17.72;52.95;99763.53;12255093;19;19925;-82
2023/03/24 15:23:27;;;;;;;;;;;19.10;49.50;;;18.01;52.84;99792.31;12252407;19;19978;-82
2023/03/24 15:27:32;;;;;;;;;;;19.10;49.00;;;17.74;53.09;99751.00;12260040;19;20556;-82
2023/03/24 15:31:33;;;;;;;;;;;19.10;49.60;;;17.87;53.05;99777.03;12261040;19;19927;-82
2023/03/24 15:35:35;;;;;;;;;;;19.10;48.70;;;17.89;52.95;99814.69;12265381;19;19944;-84
2023/03/24 15:39:39;;;;;;;;;;;19.10;49.00;;;17.91;53.01;99791.59;12259760;19;19929;-83
2023/03/24 15:43:48;;;;;;;;;;;19.10;49.00;;;17.83;52.91;99804.75;12265306;19;19919;-83
2023/03/24 15:47:53;;;;;;;;;;;19.10;49.20;;;17.72;52.69;99783.84;12261655;19;20349;-84
2023/03/24 15:51:57;;;;;;;;;;;19.10;49.40;;;17.73;52.49;99806.59;12261504;19;19906;-82
2023/03/24 15:56:27;;;;;;;;;;;19.00;49.50;;;17.87;52.60;99825.38;12259340;19;19915;-83
2023/03/24 16:00:39;;;;;;;;;;;19.00;49.90;;;17.85;52.88;99819.44;12259144;19;19915;-83
2023/03/24 16:04:41;;;;;;;;;;;19.00;50.20;;;17.87;52.65;99825.38;12259765;19;19918;-84
2023/03/24 16:08:44;;;;;;;;;;;19.00;50.20;;;17.97;52.54;99833.22;12271723;19;20355;-83
2023/03/24 16:12:46;;;;;;;;;;;19.00;50.40;;;17.67;52.64;99774.53;12260726;19;19919;-83
2023/03/24 16:16:48;;;;;;;;;;;19.00;50.40;;;17.95;52.62;99816.69;12261328;19;19926;-82
2023/03/24 16:20:50;;;;;;;;;;;19.00;50.30;;;17.97;52.38;99829.75;12257902;19;19907;-83
2023/03/24 16:24:52;;;;;;;;;;;19.10;50.20;;;17.98;52.46;99831.41;12263571;19;19919;-83
2023/03/24 16:28:59;;;;;;;;;;;19.10;50.40;;;17.94;52.77;99830.91;12262750;19;19922;-83
2023/03/24 16:33:01;;;;;;;;;;;19.00;50.50;;;17.86;52.41;99825.56;12256781;19;19939;-83
2023/03/24 16:37:03;;;;;;;;;;;19.00;50.50;;;17.88;52.38;99844.72;12262922;19;19910;-83
2023/03/24 16:41:04;;;;;;;;;;;19.00;50.50;;;17.89;52.35;99849.03;12258081;19;19927;-83
2023/03/24 16:45:06;;;;;;;;;;;19.00;50.30;;;17.81;52.33;99846.31;12262222;19;19914;-84
2023/03/24 16:49:11;;;;;;;;;;;18.90;50.50;;;17.79;52.34;99853.56;12256342;19;19919;-83
2023/03/24 16:53:13;;;;;;;;;;;18.90;50.50;;;17.74;52.42;99845.22;12255765;19;19944;-82
2023/03/24 16:57:15;;;;;;;;;;;18.80;50.60;;;17.72;52.34;99852.50;12258639;19;19919;-81
2023/03/24 17:01:32;;;;;;;;;;;18.70;50.70;;;17.72;52.50;99865.69;12253472;19;20403;-81
2023/03/24 17:05:38;;;;;;;;;;;18.70;50.70;;;17.60;52.40;99865.91;12258053;19;19922;-82
2023/03/24 17:09:40;;;;;;;;;;;18.70;50.80;;;17.65;52.45;99879.47;12255997;19;19918;-81
2023/03/24 17:13:42;;;;;;;;;;;18.70;50.90;;;17.53;52.34;99851.66;12258284;19;19930;-81
2023/03/24 17:17:43;;;;;;;;;;;18.60;50.90;;;17.55;52.26;99869.97;12255181;19;19983;-81
2023/03/24 17:22:03;;;;;;;;;;;18.60;50.90;;;17.43;52.48;99870.19;12249861;19;20368;-84
2023/03/24 17:26:04;;;;;;;;;;;18.50;51.00;;;17.46;52.14;99875.19;12257015;19;19918;-85
2023/03/24 17:30:07;;;;;;;;;;;18.50;51.00;;;17.47;52.42;99894.47;12255621;19;19986;-83
2023/03/24 17:34:12;;;;;;;;;;;18.40;51.10;;;17.40;52.39;99885.53;12259139;19;19918;-83
2023/03/24 17:38:15;;;;;;;;;;;18.40;51.10;;;17.36;52.14;99895.56;12255356;19;19911;-83
2023/03/24 17:42:16;;;;;;;;;;;18.40;51.10;;;17.23;52.27;99889.81;12257192;19;19999;-84
2023/03/24 17:46:17;;;;;;;;;;;18.30;51.10;;;17.15;52.12;99876.53;12257175;19;19929;-84
2023/03/24 17:50:19;;;;;;;;;;;18.30;51.10;;;17.23;52.21;99917.00;12253154;19;20011;-83
2023/03/24 17:54:21;;;;;;;;;;;18.20;51.10;;;16.94;52.14;99874.13;12255084;19;19928;-83
2023/03/24 17:58:25;;;;;;;;;;;18.20;51.20;;;16.98;52.22;99899.22;12254181;19;19922;-83
2023/03/24 18:02:26;;;;;;;;;;;18.10;51.10;;;17.13;52.23;99926.78;12253222;19;19923;-84
2023/03/24 18:06:29;;;;;;;;;;;18.10;51.20;;;16.98;52.10;99918.50;12253051;19;19915;-84
2023/03/24 18:10:33;;;;;;;;;;;18.00;51.10;;;16.99;52.33;99925.47;12250424;19;19911;-83
2023/03/24 18:14:34;;;;;;;;;;;17.90;51.10;;;16.92;52.16;99927.00;12253929;19;20616;-83
2023/03/24 18:18:37;;;;;;;;;;;17.90;51.10;;;16.80;52.33;99902.63;12259290;19;19990;-84
2023/03/24 18:22:39;;;;;;;;;;;17.90;51.10;;;16.86;52.35;99940.78;12266363;19;19910;-83
2023/03/24 18:26:41;;;;;;;;;;;17.80;51.10;;;16.77;52.14;99931.13;12267769;19;19926;-83
2023/03/24 18:30:42;;;;;;;;;;;17.70;51.10;;;16.69;52.09;99937.06;12265348;19;20343;-84
2023/03/24 18:34:44;;;;;;;;;;;17.60;51.10;;;16.62;52.29;99929.88;12266817;19;19974;-83
2023/03/24 18:38:46;;;;;;;;;;;17.60;51.20;;;16.49;52.25;99915.19;12262103;19;19918;-83
2023/03/24 18:42:48;;;;;;;;;;;17.50;51.20;;;16.53;52.09;99919.22;12264036;19;20392;-83
2023/03/24 18:46:50;;;;;;;;;;;17.50;51.20;;;16.49;52.17;99933.63;12263173;19;19986;-83
2023/03/24 18:50:52;;;;;;;;;;;17.50;51.20;;;16.42;52.36;99931.69;12271843;19;19927;-83